Ufimets — UFNC — position and weather

sailwx.info

Track history (hours):
 
Tides and Currents Weather Stations Pressure Air Temp Water Temp Dewpoint Dewpoint Depression Visibility Wind Speed Wind Dir Waves Ship Positions

Ufimets

Last reported at 2017-Oct-20 12:11 UTC. Time now 2017-Oct-20 16:09 UTC.
Position N 60°28' E 028°21'.

Length 82 m; draft 1.8 m.

Type: Ship. MMSI: 27343260.

Date/timePositionNaut miles runAvg speedWind from/ knotsBaromVisibWave heightAir tempDewpointWater temp
2017-Oct-20 12:11N 60°28' E 028°21'1 6.4
2017-Oct-20 12:00N 60°27' E 028°20'3 6.4
2017-Oct-20 11:30N 60°24' E 028°20'3 6.6
2017-Oct-20 11:01N 60°21' E 028°22'3 6.4
2017-Oct-20 10:31N 60°18' E 028°24'3 6.4
2017-Oct-20 10:00N 60°16' E 028°30'4 7.4
2017-Oct-20 09:30N 60°14' E 028°36'4 7.0
2017-Oct-20 09:00N 60°13' E 028°42'3 6.7
2017-Oct-20 08:30N 60°11' E 028°49'3 6.6
2017-Oct-20 07:59N 60°10' E 028°55'24 5.6
2017-Oct-20 03:40N 59°60' E 029°39'3 7.6
2017-Oct-20 03:15N 59°59' E 029°45'2 7.0
2017-Oct-20 02:57N 59°58' E 029°49'3 7.0
2017-Oct-20 02:31N 59°56' E 029°54'3 6.8
2017-Oct-20 02:00N 59°55' E 030°01'3 6.9
2017-Oct-20 01:30N 59°54' E 030°07'3 5.8
2017-Oct-20 01:01N 59°54' E 030°13'3 6.3
2017-Oct-20 00:30N 59°56' E 030°17'4 7.1
2017-Oct-20 00:01N 59°57' E 030°24'2 0.3
2017-Oct-19 16:41N 59°55' E 030°24'0 0.3
2017-Oct-19 16:24N 59°55' E 030°24'4 8.0
2017-Oct-19 15:57N 59°52' E 030°28'3 7.5
2017-Oct-19 15:30N 59°50' E 030°33'  
2017-Oct-12 01:58N 59°47' E 030°39'2 4.6
2017-Oct-12 01:29N 59°49' E 030°36'2 4.0
2017-Oct-12 01:00N 59°50' E 030°32'2 4.6
2017-Oct-12 00:29N 59°52' E 030°29'2 4.7
2017-Oct-12 00:00N 59°54' E 030°27'3 5.3
2017-Oct-11 23:30N 59°56' E 030°24'2 3.4
2017-Oct-11 23:00N 59°57' E 030°21'2 4.6
2017-Oct-11 22:30N 59°56' E 030°17'0 0.0
2017-Oct-11 21:58N 59°56' E 030°17'0 0.0
2017-Oct-11 21:28N 59°56' E 030°17'0 0.0
2017-Oct-11 20:58N 59°56' E 030°17'0 0.0
2017-Oct-11 20:25N 59°56' E 030°17'0 0.0
2017-Oct-11 19:55N 59°56' E 030°17'0 0.0
2017-Oct-11 19:28N 59°56' E 030°17'0 0.0
2017-Oct-11 18:55N 59°56' E 030°17'0 0.0
2017-Oct-11 18:25N 59°56' E 030°17'0 0.0
2017-Oct-11 17:58N 59°56' E 030°17'0 0.0
2017-Oct-11 17:28N 59°56' E 030°17'0 0.0
2017-Oct-11 16:55N 59°56' E 030°17'36 1.9
2017-Oct-10 22:01N 60°02' E 029°06'4 6.8
2017-Oct-10 21:28N 60°02' E 028°59'9 5.9
2017-Oct-10 19:52N 60°11' E 028°52'5 6.2
2017-Oct-10 19:05N 60°13' E 028°43'2 6.1
2017-Oct-10 18:48N 60°13' E 028°40'  
Track history (hours):
 
Tides and Currents Weather Stations Pressure Air Temp Water Temp Dewpoint Dewpoint Depression Visibility Wind Speed Wind Dir Waves Ship Positions

Ufimets

Last reported at 2017-Oct-20 12:11 UTC. Time now 2017-Oct-20 16:09 UTC.
Position N 60°28' E 028°21'.

Length 82 m; draft 1.8 m.

Type: Ship. MMSI: 27343260.

Date/timePositionNaut miles runAvg speedWind from/ knotsBaromVisibWave heightAir tempDewpointWater temp
2017-Oct-20 12:11N 60°28' E 028°21'1 6.4
2017-Oct-20 12:00N 60°27' E 028°20'3 6.4
2017-Oct-20 11:30N 60°24' E 028°20'3 6.6
2017-Oct-20 11:01N 60°21' E 028°22'3 6.4
2017-Oct-20 10:31N 60°18' E 028°24'3 6.4
2017-Oct-20 10:00N 60°16' E 028°30'4 7.4
2017-Oct-20 09:30N 60°14' E 028°36'4 7.0
2017-Oct-20 09:00N 60°13' E 028°42'3 6.7
2017-Oct-20 08:30N 60°11' E 028°49'3 6.6
2017-Oct-20 07:59N 60°10' E 028°55'24 5.6
2017-Oct-20 03:40N 59°60' E 029°39'3 7.6
2017-Oct-20 03:15N 59°59' E 029°45'2 7.0
2017-Oct-20 02:57N 59°58' E 029°49'3 7.0
2017-Oct-20 02:31N 59°56' E 029°54'3 6.8
2017-Oct-20 02:00N 59°55' E 030°01'3 6.9
2017-Oct-20 01:30N 59°54' E 030°07'3 5.8
2017-Oct-20 01:01N 59°54' E 030°13'3 6.3
2017-Oct-20 00:30N 59°56' E 030°17'4 7.1
2017-Oct-20 00:01N 59°57' E 030°24'2 0.3
2017-Oct-19 16:41N 59°55' E 030°24'0 0.3
2017-Oct-19 16:24N 59°55' E 030°24'4 8.0
2017-Oct-19 15:57N 59°52' E 030°28'3 7.5
2017-Oct-19 15:30N 59°50' E 030°33'  
2017-Oct-12 01:58N 59°47' E 030°39'2 4.6
2017-Oct-12 01:29N 59°49' E 030°36'2 4.0
2017-Oct-12 01:00N 59°50' E 030°32'2 4.6
2017-Oct-12 00:29N 59°52' E 030°29'2 4.7
2017-Oct-12 00:00N 59°54' E 030°27'3 5.3
2017-Oct-11 23:30N 59°56' E 030°24'2 3.4
2017-Oct-11 23:00N 59°57' E 030°21'2 4.6
2017-Oct-11 22:30N 59°56' E 030°17'0 0.0
2017-Oct-11 21:58N 59°56' E 030°17'0 0.0
2017-Oct-11 21:28N 59°56' E 030°17'0 0.0
2017-Oct-11 20:58N 59°56' E 030°17'0 0.0
2017-Oct-11 20:25N 59°56' E 030°17'0 0.0
2017-Oct-11 19:55N 59°56' E 030°17'0 0.0
2017-Oct-11 19:28N 59°56' E 030°17'0 0.0
2017-Oct-11 18:55N 59°56' E 030°17'0 0.0
2017-Oct-11 18:25N 59°56' E 030°17'0 0.0
2017-Oct-11 17:58N 59°56' E 030°17'0 0.0
2017-Oct-11 17:28N 59°56' E 030°17'0 0.0
2017-Oct-11 16:55N 59°56' E 030°17'36 1.9
2017-Oct-10 22:01N 60°02' E 029°06'4 6.8
2017-Oct-10 21:28N 60°02' E 028°59'9 5.9
2017-Oct-10 19:52N 60°11' E 028°52'5 6.2
2017-Oct-10 19:05N 60°13' E 028°43'2 6.1
2017-Oct-10 18:48N 60°13' E 028°40'  

Dump ship's entire track history